createdAt,value
2024-02-19T00:04:06.450Z,3.90
2024-02-19T00:09:08.856Z,4.25
2024-02-19T00:14:11.039Z,3.75
2024-02-19T00:19:13.417Z,2.88
2024-02-19T00:24:17.582Z,3.33
2024-02-19T00:29:20.107Z,3.10
2024-02-19T00:34:22.814Z,3.30
2024-02-19T00:39:25.187Z,3.47
2024-02-19T00:44:27.317Z,3.15
2024-02-19T00:54:32.110Z,2.58
2024-02-19T00:59:34.412Z,2.35
2024-02-19T01:04:36.861Z,2.83
2024-02-19T01:09:39.388Z,3.10
2024-02-19T01:14:42.259Z,2.55
2024-02-19T01:19:46.332Z,3.10
2024-02-19T01:24:50.110Z,3.47
2024-02-19T01:29:55.638Z,3.90
2024-02-19T01:34:58.715Z,3.35
2024-02-19T01:40:01.156Z,3.78
2024-02-19T01:45:06.548Z,3.92
2024-02-19T01:50:09.209Z,3.90
2024-02-19T01:55:16.223Z,3.67
2024-02-19T02:05:25.020Z,4.35
2024-02-19T02:10:27.256Z,3.78
2024-02-19T02:15:29.483Z,4.15
2024-02-19T02:20:32.659Z,3.80
2024-02-19T02:25:35.192Z,3.58
2024-02-19T02:30:37.646Z,4.00
2024-02-19T02:35:40.095Z,3.70
2024-02-19T02:40:42.331Z,3.60
2024-02-19T02:45:49.012Z,3.42
2024-02-19T02:50:53.236Z,3.35
2024-02-19T02:55:55.454Z,3.47
2024-02-19T03:00:57.935Z,3.50
2024-02-19T03:06:01.497Z,4.00
2024-02-19T03:11:04.952Z,3.28
2024-02-19T03:16:07.859Z,3.30
2024-02-19T03:21:15.116Z,3.78
2024-02-19T03:26:34.368Z,3.65
2024-02-19T03:31:44.897Z,3.58
2024-02-19T03:36:52.538Z,4.03
2024-02-19T03:41:54.774Z,3.38
2024-02-19T03:46:59.444Z,3.72
2024-02-19T03:52:03.215Z,3.78
2024-02-19T03:57:05.993Z,3.53
2024-02-19T04:02:08.264Z,3.63
2024-02-19T04:07:11.425Z,3.60
2024-02-19T04:12:13.808Z,3.35
2024-02-19T04:17:16.220Z,3.38
2024-02-19T04:22:19.723Z,3.70
2024-02-19T04:27:22.344Z,3.70
2024-02-19T04:32:24.518Z,4.93
2024-02-19T04:37:27.152Z,3.85
2024-02-19T04:42:29.624Z,3.85
2024-02-19T04:47:31.984Z,4.55
2024-02-19T04:52:36.992Z,4.32
2024-02-19T04:57:44.517Z,3.95
2024-02-19T05:02:51.184Z,4.25
2024-02-19T05:07:53.438Z,4.13
2024-02-19T05:12:55.689Z,4.18
2024-02-19T05:28:05.862Z,3.13
2024-02-19T05:33:09.167Z,4.07
2024-02-19T05:38:13.299Z,4.10
2024-02-19T05:43:16.052Z,4.72
2024-02-19T05:48:18.458Z,4.90
2024-02-19T05:53:26.879Z,4.72
2024-02-19T05:58:34.356Z,4.72
2024-02-19T06:03:36.934Z,4.68
2024-02-19T06:08:39.903Z,4.70
2024-02-19T06:13:49.678Z,4.97
2024-02-19T06:18:54.348Z,4.50
2024-02-19T06:23:59.068Z,4.47
2024-02-19T06:29:01.587Z,3.65
2024-02-19T06:34:04.826Z,4.47
2024-02-19T06:39:09.638Z,3.55
2024-02-19T06:44:16.556Z,4.13
2024-02-19T06:49:29.224Z,4.20
2024-02-19T06:54:33.000Z,4.05
2024-02-19T06:59:45.775Z,4.28
2024-02-19T07:04:51.999Z,4.03
2024-02-19T07:09:54.352Z,4.10
2024-02-19T07:14:56.924Z,5.57
2024-02-19T07:20:02.404Z,7.32
2024-02-19T07:25:13.751Z,5.05
2024-02-19T07:30:22.859Z,5.28
2024-02-19T07:35:25.336Z,5.05
2024-02-19T07:40:27.591Z,4.30
2024-02-19T07:45:29.806Z,4.72
2024-02-19T07:55:36.498Z,3.90
2024-02-19T08:00:38.978Z,4.25
2024-02-19T08:05:42.043Z,4.63
2024-02-19T08:10:51.925Z,3.92
2024-02-19T08:15:54.330Z,4.63
2024-02-19T08:20:56.591Z,4.70
2024-02-19T08:26:02.270Z,3.70
2024-02-19T08:31:04.733Z,4.40
2024-02-19T08:36:07.303Z,4.07
2024-02-19T08:41:09.395Z,3.80
2024-02-19T08:51:14.008Z,4.53
2024-02-19T08:56:16.746Z,4.80
2024-02-19T09:01:20.349Z,4.88
2024-02-19T09:06:22.691Z,5.07
2024-02-19T09:11:24.918Z,5.63
2024-02-19T09:16:27.449Z,5.47
2024-02-19T09:21:29.731Z,5.28
2024-02-19T09:26:32.003Z,5.38
2024-02-19T09:31:34.591Z,5.63
2024-02-19T09:36:37.096Z,4.50
2024-02-19T10:34:21.020Z,3.05
2024-02-19T10:39:23.661Z,3.60
2024-02-19T10:44:27.562Z,3.33
2024-02-19T10:49:30.664Z,3.42
2024-02-19T10:54:32.970Z,3.25
2024-02-19T10:59:36.987Z,3.00
2024-02-19T11:04:39.448Z,3.58
2024-02-19T11:09:42.808Z,3.70
2024-02-19T11:14:47.000Z,3.50
2024-02-19T11:19:49.128Z,3.67
2024-02-19T11:24:52.346Z,4.05
2024-02-19T11:30:02.989Z,3.80
2024-02-19T11:35:15.661Z,2.83
2024-02-19T11:40:21.082Z,3.95
2024-02-19T11:45:27.258Z,4.22
2024-02-19T11:50:32.814Z,5.03
2024-02-19T11:55:41.031Z,4.43
2024-02-19T12:00:43.316Z,3.20
2024-02-19T12:05:47.472Z,4.10
2024-02-19T12:10:51.838Z,4.38
2024-02-19T12:15:54.201Z,4.43
2024-02-19T12:20:56.614Z,3.97
2024-02-19T12:25:58.770Z,3.55
2024-02-19T12:31:01.341Z,3.85
2024-02-19T12:36:03.865Z,3.35
2024-02-19T12:41:06.174Z,4.28
2024-02-19T12:46:10.061Z,4.03
2024-02-19T12:51:16.425Z,3.60
2024-02-19T12:56:18.781Z,3.50
2024-02-19T13:01:28.072Z,3.10
2024-02-19T13:06:35.092Z,4.13
2024-02-19T13:11:39.755Z,3.45
2024-02-19T13:16:42.170Z,3.50
2024-02-19T13:21:44.858Z,3.85
2024-02-19T13:31:49.650Z,3.92
2024-02-19T13:36:53.885Z,3.83
2024-02-19T13:41:56.417Z,3.70
2024-02-19T13:47:00.056Z,3.60
2024-02-19T13:52:02.599Z,4.45
2024-02-19T13:57:05.344Z,4.65
2024-02-19T14:02:08.899Z,3.75
2024-02-19T14:07:12.023Z,3.90
2024-02-19T14:12:14.336Z,4.35
2024-02-19T14:17:16.554Z,3.72
2024-02-19T14:22:18.928Z,3.40
2024-02-19T14:27:21.282Z,4.07
2024-02-19T14:32:23.675Z,4.18
2024-02-19T14:37:28.097Z,3.92
2024-02-19T14:42:31.720Z,4.40
2024-02-19T14:47:35.646Z,5.05
2024-02-19T14:52:42.360Z,3.58
2024-02-19T14:57:47.330Z,4.57
2024-02-19T15:02:51.394Z,4.35
2024-02-19T15:07:56.952Z,4.25
2024-02-19T15:13:00.503Z,4.50
2024-02-19T15:18:05.833Z,3.67
2024-02-19T15:23:08.355Z,4.18
2024-02-19T15:28:11.080Z,3.90
2024-02-19T15:33:13.461Z,3.92
2024-02-19T15:38:17.003Z,3.40
2024-02-19T15:43:20.197Z,5.20
2024-02-19T15:48:22.671Z,4.40
2024-02-19T15:53:29.004Z,4.88
2024-02-19T15:58:33.186Z,4.68
2024-02-19T16:03:38.420Z,4.97
2024-02-19T16:08:42.302Z,4.28
2024-02-19T16:13:46.242Z,4.97
2024-02-19T16:18:49.177Z,6.50
2024-02-19T16:23:51.991Z,5.78
2024-02-19T16:28:56.565Z,5.30
2024-02-19T16:34:00.022Z,5.13
2024-02-19T16:39:02.634Z,6.30
2024-02-19T16:44:05.681Z,5.82
2024-02-19T16:49:08.463Z,5.32
2024-02-19T16:54:11.971Z,5.82
2024-02-19T16:59:14.677Z,5.80
2024-02-19T17:04:17.453Z,5.28
2024-02-19T17:09:19.956Z,4.20
2024-02-19T17:14:22.702Z,4.25
2024-02-19T17:19:25.579Z,4.05
2024-02-19T17:24:29.704Z,4.70
2024-02-19T17:29:31.965Z,5.65
2024-02-19T17:34:34.443Z,6.10
2024-02-19T17:39:37.175Z,4.95
2024-02-19T17:44:39.627Z,3.97
2024-02-19T17:49:43.068Z,5.93
2024-02-19T17:54:45.947Z,5.15
2024-02-19T17:59:48.514Z,6.85
2024-02-19T18:04:55.558Z,7.95
2024-02-19T18:09:58.731Z,7.55
2024-02-19T18:15:01.293Z,6.60
2024-02-19T18:20:08.158Z,5.57
2024-02-19T18:25:11.049Z,5.43
2024-02-19T18:30:15.944Z,5.68
2024-02-19T18:35:19.212Z,5.00
2024-02-19T18:40:21.784Z,4.72
2024-02-19T18:45:26.142Z,4.82
2024-02-19T18:50:28.587Z,3.83
2024-02-19T18:55:31.258Z,4.57
2024-02-19T19:00:34.290Z,5.10
2024-02-19T19:05:38.888Z,5.80
2024-02-19T19:10:41.541Z,5.28
2024-02-19T19:15:44.541Z,4.13
2024-02-19T19:20:48.073Z,5.70
2024-02-19T19:25:50.628Z,5.57
2024-02-19T19:30:53.117Z,5.88
2024-02-19T19:35:55.680Z,5.38
2024-02-19T19:41:00.668Z,5.45
2024-02-19T19:46:04.935Z,5.28
2024-02-19T19:54:35.099Z,6.13
2024-02-19T19:59:37.935Z,5.80
2024-02-19T20:04:42.728Z,5.28
2024-02-19T20:13:09.205Z,6.38
2024-02-19T20:18:13.939Z,7.63
2024-02-19T20:23:17.153Z,5.60
2024-02-19T20:28:19.801Z,6.70
2024-02-19T20:33:22.445Z,6.32
2024-02-19T20:38:25.462Z,6.60
2024-02-19T20:43:27.850Z,5.75
2024-02-19T20:48:30.909Z,6.72
2024-02-19T20:53:35.956Z,6.28
2024-02-19T20:58:41.445Z,6.47
2024-02-19T21:03:49.482Z,6.90
2024-02-19T21:13:50.710Z,5.88
2024-02-19T21:19:02.794Z,6.47
2024-02-19T21:32:55.774Z,5.15
2024-02-19T21:37:58.198Z,7.78
2024-02-19T21:43:00.655Z,7.60
2024-02-19T21:48:05.827Z,6.45
2024-02-19T21:53:08.550Z,5.90
2024-02-19T21:58:12.356Z,5.80
2024-02-19T22:03:15.017Z,23.50
2024-02-19T22:08:18.611Z,13.02
2024-02-19T22:13:21.614Z,8.90
2024-02-19T22:18:25.710Z,6.63
2024-02-19T22:23:28.301Z,5.97
2024-02-19T22:28:32.230Z,10.15
2024-02-19T22:33:35.758Z,10.10
2024-02-19T22:38:39.323Z,7.90
2024-02-19T22:43:41.945Z,7.70
2024-02-19T22:48:44.066Z,6.25
2024-02-19T22:53:46.850Z,5.50
2024-02-19T22:58:49.254Z,5.72
2024-02-19T23:04:34.014Z,4.50
2024-02-19T23:10:43.337Z,4.93
2024-02-19T23:16:25.915Z,5.00
2024-02-19T23:22:30.110Z,5.28
2024-02-19T23:28:20.962Z,5.03
2024-02-19T23:33:38.601Z,5.57
2024-02-19T23:38:49.365Z,5.78
2024-02-19T23:43:58.966Z,4.57
2024-02-19T23:49:01.240Z,4.38
2024-02-19T23:54:27.896Z,4.60
2024-02-19T23:59:47.507Z,4.68
